Página principal
METAR-TAF:

METAR-TAF

Aeroportos :

Pointe-Noire, Congo

latitude: 04-49S, longitude: 011-54E, altura: 17 m

Observação actual do tempo

O boletim foi feito há 1 hora e 5 minutos, às 14:00 UTC
Vento 9 kt de sudoeste, variando entre sul e oes-sudoeste
Temperatura 30°C
Humidade 75%
Pressão 1009 hPa
Visibilidade 10 km ou mais
Nuvens dispersasa uma altura de 1600 ft
Nuvens dispersasa uma altura de 3000 ft

METAR: FCPP 161400Z 22009KT 180V250 9999 SCT016 SCT030 30/25 Q1009 NOSIG

Hora: 16:05 (15:05 UTC)

Previsão

O boletim foi feito há 4 horas e 5 minutos, às 11:00 UTC
Previsão válida de 16 às 12 UTC a 17 às 12 UTC
Vento 5 kt de su-sudoeste
Visibilidade: 9000 m
Nuvens dispersasa uma altura de 2000 ft
Poucas nuvensa uma altura de 3000 ft, Cumulonimbus.
Tornando-se
de 16 às 20 UTC a 16 às 22 UTC
Nuvens dispersasa uma altura de 1800 ft

TAF: FCPP 161100Z 1612/1712 20005KT 9000 SCT020 FEW030CB BECMG 1620/1622 SCT018

Observações e previsões do tempo de mais de 4000 aeroportos (mensagens METAR e TAF).

As estações disponíveis são os pontos amarelos e vermelhos sobre o mapa.

Mova o rato sobre o mapa para ver o nome da estação.

Depois clique no ponto para visualizar as observações e previsões meteorológicas.

Para alterar o mapa : clique nos botões verdes com uma cruz preta para aumentar o zoom; no botão verde com uma pitada de zoom; ou nas setas verdes para mapas adjacentes.


METAR-TAF: